Main page
METAR-TAF:

METAR-TAF

Airports :

Shanghai Pudong International Airport

Shanghai-Pudong, China

latitude: 31-07N, longitude: 121-46E, elevation: 4 m

Current weather observation

The report was made 32 minutes ago, at 09:00 UTC
Wind 12 kt from the South
Temperature 19°C
Humidity 60%
Pressure 1016 hPa
Visibility 10 km or more
no clouds below 1500 m and no cumulonimbus

METAR: ZSPD 240900Z 17006MPS CAVOK 19/11 Q1016 NOSIG

Time: 17:32 (09:32 UTC)

Forecast

The report was made 6 hours and 29 minutes ago, at 03:03 UTC
Forecast valid from 24 at 06 UTC to 25 at 06 UTC
Wind 8 kt from the South
Visibility: 5000 m
Broken clouds at a height of 2000 ft
mist
Becoming
from 25 at 00 UTC to 25 at 02 UTC
Wind 8 kt from the West

TAF: ZSPD 240303Z 2406/2506 19004MPS 5000 BR BKN020 TX21/2406Z TN14/2421Z BECMG 2500/2502 28004MPS

Weather observations and forecasts of more than 4000 airports (METAR and TAF reports).

The available stations are represented by yellow and red dots on the map.

Hover mouse over dot to see the name of the station.

Then click to see weather observations and forecasts.

To change the map : click on the green buttons with a black cross to zoom in, on the green button with a dash to zoom out, or on the green arrows for adjacent maps.


METAR-TAF: